Time;durP1;ratioP1;P1;durP2;ratioP2;P2;SDS_P1;SDS_P2;PMS_P1;PMS_P2;Temp;Humidity;BMP_temperature;BMP_pressure;BME280_temperature;BME280_humidity;BME280_pressure;Samples;Min_cycle;Max_cycle;Signal;HPM_P1;HPM_P2
2023/04/18 00:08:09;;;;;;;18.70;11.80;;;;;;;12.26;78.91;101430.09;671970;1263;138553;-87
2023/04/18 00:23:12;;;;;;;39.70;20.50;;;;;;;12.09;78.65;101425.21;670209;1260;138852;-89
2023/04/18 00:38:16;;;;;;;50.80;25.00;;;;;;;11.95;79.63;101420.15;673447;1278;140329;-87
2023/04/18 00:53:19;;;;;;;24.50;13.20;;;;;;;11.92;79.97;101421.40;673334;1262;139708;-88
2023/04/18 01:08:23;;;;;;;20.90;14.70;;;;;;;11.89;80.26;101415.33;674747;1263;140323;-88
2023/04/18 01:23:26;;;;;;;22.50;13.50;;;;;;;11.96;80.01;101425.02;670814;1263;138001;-87
2023/04/18 01:38:29;;;;;;;19.00;11.20;;;;;;;11.97;80.44;101432.46;675505;1264;139923;-88
2023/04/18 01:53:32;;;;;;;15.10;10.20;;;;;;;12.05;80.47;101431.73;673836;1261;139073;-89
2023/04/18 02:08:36;;;;;;;18.80;12.10;;;;;;;12.14;79.88;101431.71;672631;1260;139490;-86
2023/04/18 02:23:42;;;;;;;22.00;12.80;;;;;;;12.04;80.59;101428.56;671256;1263;139376;-87
2023/04/18 02:38:45;;;;;;;30.00;17.10;;;;;;;11.50;83.25;101421.90;670374;1263;139244;-87
2023/04/18 02:53:50;;;;;;;30.20;17.00;;;;;;;11.37;85.18;101419.70;672177;1259;139275;-88
2023/04/18 03:08:54;;;;;;;28.40;15.30;;;;;;;11.27;85.50;101421.70;675341;1262;139269;-87
2023/04/18 03:23:59;;;;;;;17.60;11.80;;;;;;;11.29;85.54;101419.39;673943;1263;139467;-88
2023/04/18 03:39:02;;;;;;;22.60;13.60;;;;;;;11.31;85.38;101423.78;673075;1262;139318;-87
2023/04/18 03:54:05;;;;;;;23.20;14.90;;;;;;;11.33;85.96;101431.07;674268;1263;138699;-88
2023/04/18 04:09:09;;;;;;;20.90;12.40;;;;;;;11.36;85.60;101431.31;673743;1274;139049;-84
2023/04/18 04:24:13;;;;;;;27.10;15.50;;;;;;;11.44;85.97;101436.37;674691;1262;139001;-90
2023/04/18 04:39:20;;;;;;;43.90;24.00;;;;;;;11.49;87.01;101444.25;672979;1273;139057;-88
2023/04/18 04:54:42;;;;;;;23.50;14.50;;;;;;;11.67;86.83;101454.35;675355;1261;139033;-89
2023/04/18 05:09:48;;;;;;;22.10;14.00;;;;;;;11.83;88.03;101463.49;671801;1257;139535;-87
2023/04/18 05:24:51;;;;;;;44.80;23.70;;;;;;;12.18;87.53;101467.86;673538;1263;138855;-85
2023/04/18 05:39:54;;;;;;;31.80;18.40;;;;;;;12.63;86.89;101470.72;674835;1263;138765;-83
2023/04/18 05:55:00;;;;;;;30.60;18.90;;;;;;;13.15;86.03;101467.74;676925;1261;139348;-87
2023/04/18 06:10:08;;;;;;;31.30;20.40;;;;;;;13.63;85.54;101468.67;677768;1258;139145;-87
2023/04/18 06:25:11;;;;;;;25.50;14.60;;;;;;;14.23;84.13;101461.70;676478;1263;139076;-88
2023/04/18 06:40:14;;;;;;;34.50;20.10;;;;;;;15.04;82.41;101461.12;675321;1261;139637;-88
2023/04/18 06:55:17;;;;;;;23.60;14.60;;;;;;;15.55;79.65;101462.27;673821;1273;140014;-87
2023/04/18 07:10:20;;;;;;;19.70;11.80;;;;;;;16.31;77.78;101466.78;679895;1262;140134;-87
2023/04/18 07:25:24;;;;;;;21.40;13.80;;;;;;;16.89;74.53;101473.72;675869;1263;138965;-83
2023/04/18 07:40:27;;;;;;;22.60;12.20;;;;;;;16.99;71.80;101486.67;681847;1259;139311;-87
2023/04/18 07:55:30;;;;;;;18.60;12.30;;;;;;;16.90;72.27;101490.34;674421;1262;139972;-88
2023/04/18 08:10:34;;;;;;;20.80;13.60;;;;;;;17.17;72.33;101483.67;676758;1260;139156;-90
2023/04/18 08:25:37;;;;;;;24.70;14.00;;;;;;;17.57;71.48;101484.45;672326;1273;139574;-90
2023/04/18 08:40:42;;;;;;;21.70;12.00;;;;;;;18.01;70.18;101486.42;671346;1263;139819;-88
2023/04/18 08:55:46;;;;;;;19.50;10.30;;;;;;;18.49;67.94;101476.59;674714;1259;140320;-88
2023/04/18 09:10:49;;;;;;;8.90;6.40;;;;;;;18.49;62.13;101474.73;675360;1258;141043;-89
2023/04/18 09:25:53;;;;;;;14.10;9.00;;;;;;;18.80;60.69;101474.11;671617;1263;140493;-86
2023/04/18 09:41:10;;;;;;;17.00;10.20;;;;;;;18.98;60.13;101470.91;674802;1257;139216;-88
2023/04/18 09:56:24;;;;;;;15.70;9.10;;;;;;;19.65;59.99;101462.19;673668;1262;139469;-87
2023/04/18 10:11:30;;;;;;;14.20;8.10;;;;;;;19.95;58.85;101457.05;673912;1260;138547;-88
2023/04/18 10:26:46;;;;;;;9.50;6.30;;;;;;;20.91;58.86;101444.09;676288;1260;139635;-89
2023/04/18 10:41:50;;;;;;;11.00;6.60;;;;;;;21.36;56.86;101437.00;674651;1259;138020;-87
2023/04/18 10:56:55;;;;;;;10.90;7.90;;;;;;;21.38;56.18;101423.20;675020;1266;138654;-87
2023/04/18 11:15:20;;;;;;;8.20;5.20;;;;;;;21.87;54.38;101411.64;653817;1301;545403;-86
2023/04/18 11:30:24;;;;;;;7.40;5.30;;;;;;;22.06;53.77;101396.58;670910;1275;138362;-89
2023/04/18 11:45:28;;;;;;;7.30;5.10;;;;;;;22.31;53.23;101386.45;674086;1274;138310;-79
2023/04/18 12:00:40;;;;;;;6.20;5.10;;;;;;;23.46;50.52;101369.79;671300;1273;138054;-77
2023/04/18 12:15:45;;;;;;;12.80;5.30;;;;;;;24.08;48.16;101355.14;670921;1273;138856;-70
2023/04/18 12:30:48;;;;;;;12.10;7.50;;;;;;;24.74;47.49;101338.82;667087;1273;138122;-85
2023/04/18 12:45:52;;;;;;;9.50;6.30;;;;;;;24.04;46.73;101325.73;666310;1270;138043;-87
2023/04/18 13:00:56;;;;;;;11.00;6.90;;;;;;;25.64;45.36;101303.83;670272;1274;138785;-78
2023/04/18 13:16:00;;;;;;;20.90;9.30;;;;;;;23.79;46.54;101302.16;673631;1270;139953;-91
2023/04/18 13:31:03;;;;;;;19.90;8.00;;;;;;;22.17;48.78;101296.27;664364;1275;138002;-76
2023/04/18 13:46:06;;;;;;;17.00;9.50;;;;;;;22.51;49.30;101283.34;664112;1273;139075;-75
2023/04/18 14:01:10;;;;;;;9.70;6.60;;;;;;;23.74;47.62;101283.20;666213;1274;138722;-75
2023/04/18 14:16:14;;;;;;;14.80;6.70;;;;;;;23.53;47.28;101281.30;661607;1273;138793;-78
2023/04/18 14:31:17;;;;;;;16.50;9.10;;;;;;;24.33;47.34;101285.02;662832;1274;139446;-80
2023/04/18 14:46:20;;;;;;;14.90;10.20;;;;;;;24.31;50.43;101280.42;660952;1274;138520;-77
2023/04/18 15:01:24;;;;;;;10.70;8.00;;;;;;;24.06;50.16;101279.58;668147;1278;138811;-76
2023/04/18 15:16:27;;;;;;;17.60;10.30;;;;;;;21.73;52.41;101285.81;671463;1262;138448;-76
2023/04/18 15:31:31;;;;;;;30.70;22.90;;;;;;;21.15;54.76;101287.48;663886;1269;138499;-78
2023/04/18 15:46:35;;;;;;;16.00;10.10;;;;;;;20.37;56.70;101288.54;667119;1268;139178;-76
2023/04/18 16:01:39;;;;;;;32.90;20.10;;;;;;;19.27;56.71;101296.67;676389;1266;139085;-77
2023/04/18 16:16:42;;;;;;;24.00;13.70;;;;;;;18.61;57.48;101294.36;676443;1266;138722;-80
2023/04/18 16:31:46;;;;;;;21.50;13.30;;;;;;;17.94;59.07;101297.09;677547;1266;138990;-76
2023/04/18 16:46:50;;;;;;;21.90;13.40;;;;;;;17.53;60.87;101298.42;674326;1265;138196;-78
2023/04/18 17:01:54;;;;;;;65.00;33.30;;;;;;;17.32;62.18;101301.08;671789;1264;139061;-78
2023/04/18 17:16:57;;;;;;;37.20;20.20;;;;;;;17.02;63.80;101293.09;675079;1265;139052;-77
2023/04/18 17:32:00;;;;;;;57.00;27.60;;;;;;;16.79;65.75;101291.44;673683;1269;139453;-77
2023/04/18 17:47:07;;;;;;;40.90;24.70;;;;;;;16.61;66.53;101292.52;672481;1269;139566;-76
2023/04/18 18:02:10;;;;;;;29.60;17.70;;;;;;;16.37;67.34;101289.36;674618;1268;141338;-76
2023/04/18 18:17:14;;;;;;;26.60;14.30;;;;;;;16.12;67.87;101292.23;673642;1272;138959;-77
2023/04/18 18:32:17;;;;;;;21.10;13.20;;;;;;;15.79;67.49;101292.55;676355;1267;139179;-79
2023/04/18 18:47:21;;;;;;;22.20;12.70;;;;;;;15.49;68.22;101290.04;675744;1268;139301;-80
2023/04/18 19:02:24;;;;;;;29.60;15.50;;;;;;;15.25;68.96;101282.69;676360;1268;139469;-76
2023/04/18 19:17:29;;;;;;;26.40;14.90;;;;;;;14.91;69.96;101279.67;677446;1269;139846;-78
2023/04/18 19:32:33;;;;;;;29.90;17.20;;;;;;;14.54;70.59;101268.46;677733;1267;139863;-77
2023/04/18 19:47:37;;;;;;;25.10;15.20;;;;;;;14.32;71.11;101264.95;678177;1269;139828;-78
2023/04/18 20:02:40;;;;;;;27.30;13.70;;;;;;;14.20;71.10;101262.66;673756;1266;139486;-78
2023/04/18 20:17:44;;;;;;;27.80;10.80;;;;;;;13.91;70.57;101252.35;675035;1263;139441;-77
2023/04/18 20:32:48;;;;;;;53.00;23.70;;;;;;;13.41;69.09;101248.46;675528;1262;139144;-76
2023/04/18 20:47:51;;;;;;;64.50;21.90;;;;;;;12.93;68.14;101234.92;673987;1268;139576;-79
2023/04/18 21:02:55;;;;;;;91.60;29.70;;;;;;;12.50;67.53;101228.98;674080;1276;138896;-76
2023/04/18 21:17:58;;;;;;;31.80;13.30;;;;;;;11.99;67.29;101219.48;671649;1266;139136;-75
2023/04/18 21:33:02;;;;;;;30.30;11.90;;;;;;;11.53;67.79;101208.36;675507;1269;139073;-77
2023/04/18 21:48:07;;;;;;;31.60;12.70;;;;;;;11.18;67.81;101194.38;678318;1268;139376;-76
2023/04/18 22:03:11;;;;;;;20.40;10.40;;;;;;;10.88;67.83;101188.39;673386;1266;139954;-76
2023/04/18 22:18:14;;;;;;;25.50;12.10;;;;;;;10.65;68.88;101175.23;675899;1269;139060;-76
2023/04/18 22:33:17;;;;;;;10.20;6.30;;;;;;;10.49;68.97;101167.46;677484;1266;139673;-76
2023/04/18 22:48:21;;;;;;;17.20;7.10;;;;;;;10.19;68.82;101149.70;676051;1266;139173;-76
2023/04/18 23:03:24;;;;;;;11.90;6.80;;;;;;;9.93;68.52;101123.56;671723;1268;139180;-76
2023/04/18 23:18:28;;;;;;;12.60;6.60;;;;;;;9.69;68.15;101121.43;673481;1265;158078;-78
2023/04/18 23:33:32;;;;;;;11.80;5.70;;;;;;;9.56;68.69;101105.25;673399;1264;138757;-75
2023/04/18 23:48:35;;;;;;;11.40;4.40;;;;;;;9.42;68.44;101090.48;671357;1266;138504;-78
